Terminal Aerodrome Forecast
Issued by NWS Nashville, TN

Home | Current Version | Previous Version | Text Only | Print | Product List | Glossary On
Versions: 1 2 3 4 5 6 7 8 9 10 11 12 13 14 15 16 17 18 19 20 21 22 23 24 25 26 27 28 29
561
FTUS44 KOHX 240306 AAE
TAFCSV
TAF AMD
KCSV 240306Z 2403/2424 33006KT P6SM SCT010 BKN015
     FM240600 20002KT 4SM BR BKN050
     FM241000 18003KT 2SM BR VCSH OVC015
     FM241200 17004KT 2SM -SHRA BR OVC007
     FM241500 21007KT 5SM -SHRA BR OVC015=

USA.gov is the U.S. government's official web portal to all federal, state and local government web resources and services.